Time;durP1;ratioP1;P1;durP2;ratioP2;P2;SDS_P1;SDS_P2;PMS_P1;PMS_P2;Temp;Humidity;BMP_temperature;BMP_pressure;BME280_temperature;BME280_humidity;BME280_pressure;Samples;Min_cycle;Max_cycle;Signal;HPM_P1;HPM_P2
2021/11/22 00:01:51;;;;;;;29.85;16.65;;;;;;;0.20;70.38;93228.25;5091618;28;20027;-46
2021/11/22 00:04:17;;;;;;;34.15;17.92;;;;;;;0.28;69.31;93228.53;5091542;28;20031;-45
2021/11/22 00:06:42;;;;;;;35.50;19.30;;;;;;;-0.17;71.82;93233.00;5091325;28;20027;-45
2021/11/22 00:09:08;;;;;;;31.48;18.92;;;;;;;-0.01;71.60;93235.81;5091235;28;20500;-45
2021/11/22 00:11:34;;;;;;;30.30;18.15;;;;;;;0.02;71.95;93230.63;5090928;28;20028;-44
2021/11/22 00:13:59;;;;;;;35.42;19.60;;;;;;;-0.03;71.81;93238.28;5091113;28;20039;-47
2021/11/22 00:16:25;;;;;;;33.75;17.63;;;;;;;0.10;70.89;93240.56;5090523;28;20032;-46
2021/11/22 00:18:51;;;;;;;36.83;19.35;;;;;;;0.27;70.58;93246.03;5099592;28;20032;-45
2021/11/22 00:21:17;;;;;;;47.33;25.67;;;;;;;0.29;71.39;93246.28;5090642;28;20055;-45
2021/11/22 00:23:42;;;;;;;52.05;28.58;;;;;;;0.24;71.51;93230.75;5091227;28;20420;-46
2021/11/22 00:26:08;;;;;;;40.05;22.00;;;;;;;0.36;71.71;93246.59;5090599;28;20486;-45
2021/11/22 00:28:33;;;;;;;52.55;25.23;;;;;;;0.29;72.05;93243.59;5090537;28;20555;-45
2021/11/22 00:30:59;;;;;;;84.57;37.33;;;;;;;0.17;72.42;93244.78;5090794;28;20459;-46
2021/11/22 00:33:24;;;;;;;91.20;40.08;;;;;;;0.23;72.87;93245.53;5089344;28;20690;-46
2021/11/22 00:35:50;;;;;;;81.13;37.35;;;;;;;0.41;72.74;93248.56;5090523;28;20103;-46
2021/11/22 00:38:16;;;;;;;77.40;34.08;;;;;;;0.45;72.31;93245.63;5095521;28;20089;-47
2021/11/22 00:40:42;;;;;;;77.07;35.47;;;;;;;0.37;71.83;93242.63;5109011;28;20484;-47
2021/11/22 00:43:09;;;;;;;78.93;36.72;;;;;;;0.26;72.68;93212.00;5110782;28;20034;-47
2021/11/22 00:45:35;;;;;;;69.75;34.65;;;;;;;0.42;71.85;93241.16;5111012;28;20058;-46
2021/11/22 00:48:01;;;;;;;83.70;36.67;;;;;;;0.29;71.41;93221.88;5111154;28;20028;-45
2021/11/22 00:50:28;;;;;;;76.53;34.00;;;;;;;0.18;72.92;93229.97;5110681;28;20035;-45
2021/11/22 00:52:54;;;;;;;65.35;29.08;;;;;;;0.22;72.45;93235.94;5111006;28;20604;-45
2021/11/22 00:55:19;;;;;;;83.05;29.48;;;;;;;0.36;73.07;93248.56;5109570;28;20019;-45
2021/11/22 00:57:45;;;;;;;86.85;32.55;;;;;;;0.28;73.34;93242.13;5110687;28;20600;-46
2021/11/22 01:00:13;;;;;;;119.88;35.88;;;;;;;-0.14;75.41;93251.78;5110528;28;20028;-46
2021/11/22 01:02:39;;;;;;;90.00;31.45;;;;;;;-0.39;76.87;93251.88;5110912;28;20052;-46
2021/11/22 01:05:05;;;;;;;89.18;29.60;;;;;;;-0.19;76.62;93249.75;5110809;28;20568;-47
2021/11/22 01:07:30;;;;;;;89.63;31.63;;;;;;;-0.20;76.23;93245.59;5110800;28;20638;-46
2021/11/22 01:09:56;;;;;;;99.03;32.22;;;;;;;-0.27;75.57;93242.56;5110804;28;20020;-47
2021/11/22 01:12:21;;;;;;;71.95;25.63;;;;;;;-0.10;74.81;93238.72;5110108;28;20027;-46
2021/11/22 01:14:47;;;;;;;58.63;26.35;;;;;;;-0.25;75.44;93232.72;5110225;28;20030;-47
2021/11/22 01:17:15;;;;;;;68.60;26.63;;;;;;;-0.31;76.17;93231.94;5110664;28;20023;-46
2021/11/22 01:19:40;;;;;;;66.70;26.75;;;;;;;-0.19;74.80;93236.19;5110259;28;20062;-45
2021/11/22 01:22:06;;;;;;;85.75;36.67;;;;;;;-0.10;73.65;93229.84;5109392;28;20488;-46
2021/11/22 01:24:32;;;;;;;53.58;24.80;;;;;;;-0.15;74.14;93220.44;5110397;28;20480;-45
2021/11/22 01:26:57;;;;;;;45.55;25.05;;;;;;;-0.22;73.16;93204.59;5111922;28;20019;-45
2021/11/22 01:29:23;;;;;;;43.65;23.98;;;;;;;-0.01;72.99;93229.63;5114479;28;20124;-47
2021/11/22 01:31:48;;;;;;;57.35;25.88;;;;;;;-0.28;73.29;93222.81;5113895;28;20111;-45
2021/11/22 01:34:14;;;;;;;58.22;26.83;;;;;;;-0.30;73.88;93229.94;5114831;28;20058;-45
2021/11/22 01:36:39;;;;;;;49.72;26.95;;;;;;;-0.29;74.03;93224.06;5114746;28;20031;-44
2021/11/22 01:39:04;;;;;;;43.33;23.20;;;;;;;-0.24;74.45;93217.91;5114656;27;20020;-44
2021/11/22 01:41:30;;;;;;;58.97;28.48;;;;;;;-0.22;74.55;93212.75;5114373;28;20023;-44
2021/11/22 01:43:55;;;;;;;83.15;22.10;;;;;;;-0.48;75.26;93190.41;5114631;28;20042;-45
2021/11/22 01:46:22;;;;;;;63.15;30.95;;;;;;;-0.19;75.68;93206.34;5114077;28;20082;-45
2021/11/22 01:48:49;;;;;;;74.63;24.88;;;;;;;-0.15;75.73;93209.56;5113741;28;20027;-44
2021/11/22 01:51:15;;;;;;;56.20;22.55;;;;;;;-0.16;76.63;93201.94;5112867;28;20519;-45
2021/11/22 01:53:40;;;;;;;42.85;19.95;;;;;;;-0.16;77.44;93207.34;5114491;28;20031;-43
2021/11/22 01:56:06;;;;;;;49.10;17.92;;;;;;;0.01;76.49;93202.75;5113944;28;20024;-44
2021/11/22 01:58:32;;;;;;;45.78;19.98;;;;;;;-0.11;76.01;93180.25;5114409;28;20031;-44
2021/11/22 02:00:58;;;;;;;90.25;21.23;;;;;;;0.08;76.07;93193.41;5114175;28;20020;-45
2021/11/22 02:03:23;;;;;;;75.10;18.90;;;;;;;0.24;76.35;93198.16;5114008;28;20393;-45
2021/11/22 02:05:52;;;;;;;44.60;14.55;;;;;;;0.20;76.23;93195.66;5114247;28;20110;-44
2021/11/22 02:08:21;;;;;;;;;;;;;;;0.21;76.81;93202.59;5114482;28;20106;-44
2021/11/22 02:10:47;;;;;;;44.28;16.23;;;;;;;0.08;77.21;93194.16;5113227;28;19911;-44
2021/11/22 02:13:14;;;;;;;43.53;18.88;;;;;;;0.08;76.04;93204.25;5092578;28;20418;-44
2021/11/22 02:15:39;;;;;;;51.78;19.85;;;;;;;-0.19;76.89;93192.78;5093668;28;20028;-44
2021/11/22 02:18:05;;;;;;;45.10;20.25;;;;;;;-0.05;76.98;93202.00;5093262;28;20710;-44
2021/11/22 02:20:33;;;;;;;105.13;20.58;;;;;;;0.05;76.47;93208.69;5111955;28;20060;-44
2021/11/22 02:23:03;;;;;;;131.55;20.02;;;;;;;0.04;77.11;93203.75;5113311;28;20031;-44
2021/11/22 02:25:30;;;;;;;76.13;13.95;;;;;;;0.14;76.16;93205.78;5113695;28;20061;-44
2021/11/22 02:27:57;;;;;;;48.08;16.63;;;;;;;0.01;76.99;93208.19;5113759;28;20416;-44
2021/11/22 02:30:29;;;;;;;34.33;14.20;;;;;;;-0.02;76.41;93190.91;5113694;28;20110;-44
2021/11/22 02:32:57;;;;;;;43.42;15.02;;;;;;;0.10;76.03;93204.50;5113389;28;20051;-44
2021/11/22 02:35:22;;;;;;;55.53;15.13;;;;;;;-0.14;76.05;93199.47;5111049;28;20052;-44
2021/11/22 02:37:48;;;;;;;55.80;15.15;;;;;;;0.05;76.21;93199.78;5112772;28;20035;-44
2021/11/22 02:40:14;;;;;;;53.58;15.35;;;;;;;0.16;75.93;93199.84;5113230;28;20076;-44
2021/11/22 02:42:44;;;;;;;40.55;15.90;;;;;;;-0.07;75.89;93175.34;5113415;28;20416;-46
2021/11/22 02:45:13;;;;;;;82.82;17.25;;;;;;;-0.13;76.76;93209.84;5113195;27;20030;-45
2021/11/22 02:47:38;;;;;;;33.65;14.07;;;;;;;-0.18;76.68;93209.81;5113116;28;20111;-45
2021/11/22 02:50:05;;;;;;;27.58;13.02;;;;;;;-0.13;76.57;93200.97;5112999;28;20122;-49
2021/11/22 02:52:31;;;;;;;60.60;15.30;;;;;;;-0.12;76.02;93202.44;5108753;28;20039;-45
2021/11/22 02:54:56;;;;;;;59.40;16.60;;;;;;;-0.21;77.15;93197.22;5107169;28;20024;-46
2021/11/22 02:57:22;;;;;;;49.90;16.55;;;;;;;-0.14;76.96;93205.66;5104678;28;20027;-46
2021/11/22 02:59:47;;;;;;;42.72;15.48;;;;;;;-0.31;77.37;93201.34;5102237;28;20099;-45
2021/11/22 03:02:14;;;;;;;24.92;13.27;;;;;;;-0.45;78.05;93203.00;5101130;28;20027;-45
2021/11/22 03:04:42;;;;;;;43.58;13.68;;;;;;;-0.76;78.48;93205.75;5103806;28;20148;-46
2021/11/22 03:07:08;;;;;;;31.60;13.88;;;;;;;-0.79;78.92;93201.28;5095676;28;20032;-45
2021/11/22 03:09:34;;;;;;;23.00;10.63;;;;;;;-0.68;78.27;93208.75;5101681;28;20447;-45
2021/11/22 03:12:03;;;;;;;30.67;12.20;;;;;;;-0.70;77.75;93200.38;5107701;28;20409;-44
2021/11/22 03:14:28;;;;;;;20.40;11.13;;;;;;;-0.84;78.19;93193.84;5112877;28;20024;-44
2021/11/22 03:16:55;;;;;;;15.77;9.70;;;;;;;-0.73;78.13;93196.66;5112574;28;20058;-46
2021/11/22 03:19:21;;;;;;;13.02;8.45;;;;;;;-0.55;77.11;93200.97;5102196;28;20109;-45
2021/11/22 03:21:47;;;;;;;39.70;10.10;;;;;;;-0.69;77.37;93197.16;5091259;28;20056;-46
2021/11/22 03:24:12;;;;;;;19.58;10.95;;;;;;;-0.58;77.45;93199.94;5091999;28;20028;-45
2021/11/22 03:26:38;;;;;;;37.40;9.70;;;;;;;-0.49;76.82;93202.47;5092298;28;20093;-45
2021/11/22 03:29:04;;;;;;;42.65;10.65;;;;;;;-0.56;77.53;93207.63;5091893;28;20314;-46
2021/11/22 03:31:32;;;;;;;15.20;9.10;;;;;;;-0.51;77.25;93207.66;5091681;28;20039;-46
2021/11/22 03:33:57;;;;;;;31.33;10.88;;;;;;;-0.56;77.08;93208.34;5092147;28;20404;-44
2021/11/22 03:36:23;;;;;;;36.80;9.73;;;;;;;-0.79;77.77;93209.41;5091847;28;20052;-45
2021/11/22 03:38:48;;;;;;;22.17;10.20;;;;;;;-0.85;78.49;93203.22;5091683;28;20043;-45
2021/11/22 03:41:16;;;;;;;39.88;16.25;;;;;;;-0.73;78.94;93204.78;5090618;28;20028;-44
2021/11/22 03:43:59;;;;;;;42.15;15.73;;;;;;;-0.54;78.28;93205.16;5091634;28;20040;-44
2021/11/22 03:46:25;;;;;;;28.27;10.30;;;;;;;-0.75;79.37;93215.38;5091931;28;20078;-44
2021/11/22 03:48:51;;;;;;;45.50;10.90;;;;;;;-0.67;79.15;93215.69;5091467;28;20024;-44
2021/11/22 03:51:17;;;;;;;34.63;11.40;;;;;;;-0.51;78.00;93204.19;5090340;28;20040;-46
2021/11/22 03:53:43;;;;;;;72.85;10.60;;;;;;;-0.50;77.51;93217.28;5091825;28;20020;-61
2021/11/22 03:56:09;;;;;;;48.28;10.27;;;;;;;-0.47;77.42;93208.16;5103899;28;20092;-46
2021/11/22 03:58:35;;;;;;;50.05;12.93;;;;;;;-0.45;77.22;93224.69;5091477;28;20028;-45
2021/11/22 04:01:00;;;;;;;35.70;10.02;;;;;;;-0.45;76.38;93224.69;5090173;28;20055;-47
2021/11/22 04:03:26;;;;;;;30.83;9.10;;;;;;;-0.51;76.31;93226.63;5092076;28;20035;-47
2021/11/22 04:05:52;;;;;;;27.52;9.55;;;;;;;-0.56;75.85;93223.91;5110015;28;20122;-46
2021/11/22 04:08:18;;;;;;;20.58;9.77;;;;;;;-0.50;76.48;93225.41;5109246;28;20122;-44
2021/11/22 04:10:43;;;;;;;33.67;9.63;;;;;;;-0.50;75.89;93225.41;5109592;28;20031;-44
2021/11/22 04:13:09;;;;;;;20.67;9.95;;;;;;;-0.52;75.71;93230.56;5109367;28;20024;-43
2021/11/22 04:15:36;;;;;;;21.13;10.27;;;;;;;-0.49;76.53;93229.59;5109130;28;20481;-45
2021/11/22 04:18:02;;;;;;;51.13;12.25;;;;;;;-0.48;76.99;93228.38;5110218;28;20019;-46
2021/11/22 04:20:28;;;;;;;31.23;11.13;;;;;;;-0.50;76.80;93219.25;5110757;28;20036;-45
2021/11/22 04:22:53;;;;;;;25.33;12.82;;;;;;;-0.42;75.99;93221.03;5110685;28;20080;-46
2021/11/22 04:25:20;;;;;;;23.05;11.38;;;;;;;-0.70;76.85;93213.91;5098853;28;20019;-44
2021/11/22 04:27:46;;;;;;;27.73;13.73;;;;;;;-0.81;77.64;93212.63;5094608;28;20020;-46
2021/11/22 04:30:12;;;;;;;39.58;22.08;;;;;;;-0.78;78.53;93216.34;5092313;28;20026;-45
2021/11/22 04:32:37;;;;;;;35.63;18.83;;;;;;;-0.82;78.85;93218.50;5092782;28;20035;-45
2021/11/22 04:35:06;;;;;;;97.45;44.80;;;;;;;-0.94;78.10;93219.66;5092662;28;20024;-43
2021/11/22 04:37:32;;;;;;;46.00;26.83;;;;;;;-0.74;78.63;93218.81;5100046;28;20080;-44
2021/11/22 04:39:59;;;;;;;77.60;31.02;;;;;;;-0.77;78.71;93220.53;5100317;28;20055;-43
2021/11/22 04:42:24;;;;;;;58.58;19.10;;;;;;;-0.80;78.83;93222.22;5098410;28;20489;-43
2021/11/22 04:44:50;;;;;;;70.38;17.42;;;;;;;-0.70;78.92;93217.38;5100027;28;20016;-43
2021/11/22 04:47:19;;;;;;;28.35;13.88;;;;;;;-0.50;78.70;93230.09;5099902;28;20020;-43
2021/11/22 04:49:45;;;;;;;;;;;;;;;-0.49;78.40;93228.84;5099338;28;20044;-46
2021/11/22 04:52:10;;;;;;;62.92;10.52;;;;;;;-0.46;78.88;93231.34;5099951;28;20464;-44
2021/11/22 04:54:38;;;;;;;32.67;9.90;;;;;;;-0.48;78.90;93224.94;5099864;28;20456;-44
2021/11/22 04:57:04;;;;;;;20.75;10.70;;;;;;;-0.59;79.63;93200.44;5098120;28;20496;-44
2021/11/22 04:59:31;;;;;;;41.30;10.85;;;;;;;-0.43;79.02;93235.78;5100052;28;20045;-45
2021/11/22 05:01:57;;;;;;;36.92;11.85;;;;;;;-0.44;79.23;93244.41;5100559;28;20027;-46
2021/11/22 05:04:22;;;;;;;33.38;10.20;;;;;;;-0.49;79.49;93235.03;5098024;28;20028;-45
2021/11/22 05:06:48;;;;;;;15.75;9.15;;;;;;;-0.34;79.00;93237.56;5100555;28;20020;-45
2021/11/22 05:09:15;;;;;;;23.95;9.48;;;;;;;-0.26;78.45;93235.91;5099391;28;20015;-47
2021/11/22 05:11:42;;;;;;;29.38;11.10;;;;;;;-0.30;78.64;93246.97;5097593;28;20049;-48
2021/11/22 05:14:08;;;;;;;25.35;12.27;;;;;;;-0.29;79.06;93251.19;5090071;28;20035;-45
2021/11/22 05:16:34;;;;;;;32.78;12.80;;;;;;;-0.16;78.41;93245.34;5090140;28;20751;-45
2021/11/22 05:18:59;;;;;;;145.38;13.52;;;;;;;-0.15;79.15;93252.25;5096170;28;20046;-45
2021/11/22 05:21:25;;;;;;;21.30;11.15;;;;;;;-0.03;78.51;93259.22;5110320;28;20040;-44
2021/11/22 05:23:54;;;;;;;33.80;12.25;;;;;;;0.06;77.82;93263.72;5110347;28;20044;-43
2021/11/22 05:26:20;;;;;;;64.03;17.08;;;;;;;-0.10;77.27;93270.53;5110626;28;20124;-45
2021/11/22 05:28:45;;;;;;;38.20;15.95;;;;;;;-0.23;77.48;93268.25;5110315;28;20023;-43
2021/11/22 05:31:11;;;;;;;33.38;14.40;;;;;;;-0.31;77.71;93275.34;5103684;28;20031;-43
2021/11/22 05:33:37;;;;;;;50.20;14.75;;;;;;;-0.34;77.26;93287.16;5110244;28;20024;-43
2021/11/22 05:36:02;;;;;;;49.38;16.20;;;;;;;-0.57;77.75;93285.50;5108280;28;20023;-43
2021/11/22 05:38:27;;;;;;;44.53;16.40;;;;;;;-0.52;77.70;93273.94;5110277;28;20077;-43
2021/11/22 05:40:53;;;;;;;34.45;14.93;;;;;;;-0.51;77.88;93289.00;5110036;28;20020;-43
2021/11/22 05:43:18;;;;;;;26.35;12.82;;;;;;;-0.56;77.80;93291.69;5101724;28;20072;-44
2021/11/22 05:45:44;;;;;;;18.25;11.25;;;;;;;-0.63;77.53;93295.56;5110078;28;20420;-46
2021/11/22 05:48:10;;;;;;;25.17;10.32;;;;;;;-0.65;77.66;93292.56;5110388;28;20062;-45
2021/11/22 05:50:36;;;;;;;29.70;11.07;;;;;;;-0.53;77.37;93305.00;5109951;28;20023;-45
2021/11/22 05:53:03;;;;;;;39.55;10.93;;;;;;;-0.53;78.80;93298.84;5110186;28;20039;-46
2021/11/22 05:55:37;;;;;;;66.32;11.50;;;;;;;-0.57;78.77;93309.16;5109919;28;20019;-44
2021/11/22 05:58:05;;;;;;;55.40;11.85;;;;;;;-0.86;80.09;93302.00;5110058;28;20020;-43
2021/11/22 06:00:32;;;;;;;28.05;9.00;;;;;;;-0.63;79.77;93305.66;5110406;28;20020;-43
2021/11/22 06:02:57;;;;;;;34.60;10.48;;;;;;;-0.68;78.92;93287.38;5101346;28;20011;-45
2021/11/22 06:05:23;;;;;;;22.38;10.02;;;;;;;-0.64;79.21;93299.50;5100483;28;20034;-44
2021/11/22 06:07:48;;;;;;;31.08;10.18;;;;;;;-0.62;78.95;93291.63;5098795;28;20389;-44
2021/11/22 06:10:14;;;;;;;32.65;9.07;;;;;;;-0.47;78.76;93305.78;5099738;28;20039;-45
2021/11/22 06:12:40;;;;;;;29.10;12.13;;;;;;;-0.36;77.92;93308.59;5100151;28;20056;-44
2021/11/22 06:15:06;;;;;;;25.55;11.55;;;;;;;-0.38;77.56;93307.56;5101380;28;20081;-45
2021/11/22 06:17:31;;;;;;;15.05;8.77;;;;;;;-0.29;78.19;93310.88;5103664;28;20039;-43
2021/11/22 06:19:57;;;;;;;16.70;9.18;;;;;;;-0.20;78.35;93309.94;5103866;28;20749;-44
2021/11/22 06:22:23;;;;;;;16.67;7.85;;;;;;;-0.13;77.65;93302.09;5102100;28;20089;-44
2021/11/22 06:24:48;;;;;;;28.08;13.02;;;;;;;-0.08;76.91;93312.25;5100266;28;20027;-43
2021/11/22 06:27:14;;;;;;;47.42;18.15;;;;;;;0.25;75.86;93314.41;5100878;28;20477;-44
2021/11/22 06:29:40;;;;;;;18.73;11.65;;;;;;;0.15;75.91;93312.38;5101682;28;20115;-45
2021/11/22 06:32:11;;;;;;;45.25;26.17;;;;;;;0.06;75.44;93312.56;5099370;28;20428;-51
2021/11/22 06:34:37;;;;;;;61.47;29.25;;;;;;;-0.09;76.29;93316.16;5101462;28;20049;-48
2021/11/22 06:37:03;;;;;;;49.63;28.23;;;;;;;-0.20;76.30;93312.66;5099350;28;20027;-47
2021/11/22 06:39:28;;;;;;;36.55;23.60;;;;;;;0.05;76.14;93313.78;5099421;28;20028;-55
2021/11/22 06:41:54;;;;;;;34.70;20.02;;;;;;;0.36;75.51;93311.00;5100116;28;20025;-48
2021/11/22 06:44:21;;;;;;;27.27;17.10;;;;;;;0.52;75.00;93313.06;5102895;28;20115;-53
2021/11/22 06:46:48;;;;;;;20.42;12.88;;;;;;;0.62;74.37;93296.06;5095811;28;20030;-49
2021/11/22 06:49:15;;;;;;;36.47;18.30;;;;;;;0.66;74.06;93282.25;5099245;28;20019;-48
2021/11/22 06:51:40;;;;;;;28.88;13.52;;;;;;;0.84;73.50;93305.53;5089610;28;20719;-49
2021/11/22 06:54:06;;;;;;;25.05;14.13;;;;;;;0.94;73.71;93310.25;5099305;28;20047;-50
2021/11/22 06:56:31;;;;;;;23.50;16.52;;;;;;;0.43;75.13;93305.13;5088778;28;20429;-49
2021/11/22 06:58:57;;;;;;;24.80;17.40;;;;;;;0.41;75.90;93299.44;5089254;28;20039;-50
2021/11/22 07:01:23;;;;;;;20.50;15.02;;;;;;;0.55;76.00;93301.22;5089246;28;20035;-49
2021/11/22 07:03:48;;;;;;;21.92;16.73;;;;;;;0.60;75.77;93301.25;5091789;28;20012;-50
2021/11/22 07:06:14;;;;;;;22.83;15.27;;;;;;;0.95;75.89;93305.56;5106563;28;20031;-48
2021/11/22 07:08:39;;;;;;;16.23;12.15;;;;;;;1.63;75.14;93297.00;5093518;28;20020;-48
2021/11/22 07:11:05;;;;;;;23.65;16.13;;;;;;;2.07;71.89;93245.97;5107916;28;20491;-46
2021/11/22 07:13:33;;;;;;;16.48;12.05;;;;;;;3.09;70.06;93297.63;5108055;28;20030;-48
2021/11/22 07:15:59;;;;;;;17.13;11.40;;;;;;;3.55;68.19;93289.38;5109375;28;20039;-49
2021/11/22 07:18:24;;;;;;;23.38;9.68;;;;;;;3.51;66.93;93241.78;5107078;28;20508;-49
2021/11/22 07:20:49;;;;;;;24.05;15.00;;;;;;;4.01;66.49;93285.78;5101333;28;20457;-48
2021/11/22 07:23:21;;;;;;;25.13;13.15;;;;;;;4.07;65.84;93291.22;5105505;28;20058;-49
2021/11/22 07:25:46;;;;;;;21.60;14.13;;;;;;;4.28;65.81;93284.81;5107661;28;20042;-51
2021/11/22 07:28:12;;;;;;;19.20;13.45;;;;;;;4.74;64.46;93291.28;5090453;28;20028;-49
2021/11/22 07:30:38;;;;;;;22.95;14.52;;;;;;;5.21;63.43;93284.97;5097672;28;20547;-48
2021/11/22 07:33:03;;;;;;;20.00;13.43;;;;;;;5.52;61.99;93289.00;5095213;28;20108;-49
2021/11/22 07:35:29;;;;;;;21.58;13.88;;;;;;;5.69;61.60;93292.25;5089724;28;20111;-48
2021/11/22 07:37:55;;;;;;;22.00;14.35;;;;;;;5.86;61.53;93289.28;5090003;28;20100;-49
2021/11/22 07:40:21;;;;;;;24.77;15.90;;;;;;;6.53;60.44;93295.09;5090948;28;20038;-48
2021/11/22 07:42:51;;;;;;;21.05;14.25;;;;;;;7.45;58.15;93279.28;5090972;28;20028;-49
2021/11/22 07:45:17;;;;;;;16.92;13.20;;;;;;;8.66;54.32;93283.16;5090820;28;20031;-49
2021/11/22 07:47:42;;;;;;;16.88;12.82;;;;;;;10.01;50.79;93268.47;5090927;28;20114;-51
2021/11/22 07:50:08;;;;;;;29.00;16.88;;;;;;;11.32;47.29;93288.66;5106119;28;20023;-49
2021/11/22 07:52:34;;;;;;;33.17;21.40;;;;;;;12.48;43.67;93289.72;5110867;28;20028;-47
2021/11/22 07:54:59;;;;;;;31.38;21.00;;;;;;;13.30;41.93;93284.78;5111024;28;20035;-50
2021/11/22 07:57:24;;;;;;;29.40;19.77;;;;;;;13.99;40.43;93279.88;5110581;28;20032;-51
2021/11/22 07:59:51;;;;;;;27.50;17.63;;;;;;;14.30;39.77;93274.69;5111081;28;20051;-50
2021/11/22 08:02:17;;;;;;;15.85;12.85;;;;;;;13.61;40.55;93287.94;5110657;28;20032;-49
2021/11/22 08:04:42;;;;;;;17.42;12.82;;;;;;;13.39;42.32;93286.16;5110927;28;20032;-51
2021/11/22 08:07:17;;;;;;;12.27;10.35;;;;;;;14.09;40.84;93277.91;5110835;28;20059;-52
2021/11/22 08:09:55;;;;;;;13.20;11.45;;;;;;;15.34;38.89;93275.56;5110898;28;20070;-50
2021/11/22 08:12:27;;;;;;;15.38;11.93;;;;;;;16.19;37.59;93277.63;5110441;28;20080;-51
2021/11/22 08:14:58;;;;;;;45.85;30.67;;;;;;;16.76;36.67;93279.53;5110763;28;20076;-52
2021/11/22 08:17:25;;;;;;;35.13;22.75;;;;;;;17.09;35.56;93285.19;5110648;28;20043;-51
2021/11/22 08:19:51;;;;;;;30.73;21.77;;;;;;;17.56;35.64;93281.44;5109693;28;20059;-53
2021/11/22 08:22:18;;;;;;;24.77;19.30;;;;;;;18.01;35.10;93276.66;5110516;28;20515;-53
2021/11/22 08:24:47;;;;;;;15.40;12.88;;;;;;;18.73;33.41;93277.69;5104752;28;20031;-55
2021/11/22 08:27:13;;;;;;;12.95;11.65;;;;;;;18.90;33.45;93278.06;5096026;28;20028;-52
2021/11/22 08:29:38;;;;;;;14.65;11.43;;;;;;;18.84;33.94;93282.56;5106460;28;20511;-52
2021/11/22 08:32:04;;;;;;;12.27;10.93;;;;;;;19.35;32.21;93272.34;5094070;28;20023;-53
2021/11/22 08:34:30;;;;;;;14.75;12.30;;;;;;;19.46;32.58;93280.00;5110128;28;20035;-52
2021/11/22 08:36:55;;;;;;;15.70;13.00;;;;;;;19.87;31.87;93264.19;5109824;28;20023;-54
2021/11/22 08:39:21;;;;;;;17.42;11.75;;;;;;;20.55;31.47;93275.72;5110208;28;20517;-51
2021/11/22 08:41:46;;;;;;;15.02;13.18;;;;;;;21.27;29.92;93269.72;5110399;28;20675;-54
2021/11/22 08:44:12;;;;;;;14.25;12.75;;;;;;;21.63;29.31;93272.31;5109949;28;20413;-56
2021/11/22 08:46:38;;;;;;;16.35;13.90;;;;;;;21.31;29.81;93250.97;5092088;28;20027;-55
2021/11/22 08:49:07;;;;;;;14.65;13.15;;;;;;;21.47;29.59;93265.13;5089508;28;20527;-55
2021/11/22 08:51:32;;;;;;;;;;;;;;;21.47;30.57;93262.31;5089848;28;20032;-54
2021/11/22 08:53:58;;;;;;;18.67;14.73;;;;;;;21.62;30.43;93258.84;5089483;28;19915;-53
2021/11/22 08:56:23;;;;;;;20.88;17.10;;;;;;;21.36;30.40;93263.88;5089665;28;20020;-53
2021/11/22 08:58:49;;;;;;;23.33;19.05;;;;;;;21.75;30.25;93255.28;5089153;28;20024;-55
2021/11/22 09:01:14;;;;;;;21.08;18.30;;;;;;;22.21;30.09;93251.25;5089479;28;20103;-56
2021/11/22 09:03:40;;;;;;;18.48;15.48;;;;;;;22.53;28.96;93253.50;5087764;28;20036;-50
2021/11/22 09:06:05;;;;;;;20.33;17.08;;;;;;;22.98;28.74;93249.91;5088927;28;20032;-52
2021/11/22 09:08:31;;;;;;;18.77;16.58;;;;;;;23.49;27.91;93241.63;5088883;28;20031;-51
2021/11/22 09:10:57;;;;;;;19.40;15.88;;;;;;;23.82;27.71;93250.81;5088700;28;20115;-49
2021/11/22 09:13:22;;;;;;;21.75;18.00;;;;;;;24.16;27.73;93237.44;5088708;28;20024;-53
2021/11/22 09:15:48;;;;;;;26.00;20.67;;;;;;;24.22;27.31;93245.41;5089067;28;20024;-53
2021/11/22 09:18:14;;;;;;;27.40;22.70;;;;;;;24.48;26.39;93232.34;5102397;28;20136;-55
2021/11/22 09:20:40;;;;;;;31.52;22.55;;;;;;;24.63;27.13;93231.53;5108475;28;20051;-50
2021/11/22 09:23:05;;;;;;;24.00;20.63;;;;;;;24.39;26.62;93227.75;5108962;28;20106;-49
2021/11/22 09:25:31;;;;;;;22.40;19.52;;;;;;;24.62;26.79;93225.16;5109106;28;20147;-51
2021/11/22 09:27:58;;;;;;;25.50;20.58;;;;;;;24.69;26.42;93228.94;5108993;28;20541;-50
2021/11/22 09:30:24;;;;;;;23.90;19.85;;;;;;;24.89;26.37;93229.72;5108905;28;20087;-49
2021/11/22 09:32:50;;;;;;;21.70;18.17;;;;;;;24.75;26.19;93223.56;5108245;28;20054;-51
2021/11/22 09:35:16;;;;;;;21.55;17.95;;;;;;;23.85;27.50;93226.97;5108710;28;20500;-49
2021/11/22 09:37:41;;;;;;;20.88;17.92;;;;;;;23.62;28.23;93226.69;5108730;28;20088;-49
2021/11/22 09:40:09;;;;;;;24.48;18.58;;;;;;;23.30;28.35;93228.84;5109158;28;20153;-49
2021/11/22 09:42:34;;;;;;;21.40;17.75;;;;;;;23.38;28.45;93217.22;5108742;28;20415;-49
2021/11/22 09:45:01;;;;;;;17.27;15.30;;;;;;;23.67;28.67;93229.03;5108705;28;20023;-49
2021/11/22 09:47:27;;;;;;;22.15;16.45;;;;;;;23.79;28.00;93221.09;5108263;28;20027;-50
2021/11/22 09:49:54;;;;;;;16.83;14.82;;;;;;;23.59;28.23;93216.69;5113096;28;20416;-51
2021/11/22 09:52:21;;;;;;;17.10;15.25;;;;;;;23.21;28.58;93212.94;5113260;28;20073;-53
2021/11/22 09:54:46;;;;;;;20.58;15.95;;;;;;;22.74;30.19;93221.41;5113007;28;20023;-48
2021/11/22 09:57:14;;;;;;;19.23;14.55;;;;;;;22.46;29.83;93217.25;5112923;28;20420;-48
2021/11/22 09:59:40;;;;;;;21.77;16.70;;;;;;;22.19;30.86;93217.41;5111383;28;20558;-48
2021/11/22 10:02:06;;;;;;;30.88;13.75;;;;;;;21.61;30.81;93218.09;5112637;28;20019;-49
2021/11/22 10:04:32;;;;;;;17.02;12.98;;;;;;;21.10;32.62;93221.13;5111245;28;20131;-49
2021/11/22 10:07:00;;;;;;;16.45;14.27;;;;;;;21.46;32.26;93215.91;5112448;28;20103;-50
2021/11/22 10:09:32;;;;;;;15.32;11.75;;;;;;;21.60;33.02;93217.34;5112302;28;20023;-49
2021/11/22 10:12:02;;;;;;;14.13;11.02;;;;;;;21.48;31.86;93210.41;5112334;27;20031;-49
2021/11/22 10:14:29;;;;;;;12.88;10.73;;;;;;;21.89;32.45;93203.34;5106326;28;20078;-52
2021/11/22 10:16:55;;;;;;;17.65;13.88;;;;;;;22.65;31.44;93199.91;5093284;28;20035;-50
2021/11/22 10:19:21;;;;;;;14.20;11.98;;;;;;;23.04;30.21;93203.06;5100639;28;20023;-50
2021/11/22 10:21:47;;;;;;;16.83;13.68;;;;;;;22.72;29.95;93200.91;5111453;28;20094;-53
2021/11/22 10:24:14;;;;;;;12.27;9.98;;;;;;;21.60;30.72;93211.00;5111670;27;20088;-52
2021/11/22 10:26:46;;;;;;;16.38;10.57;;;;;;;20.64;32.88;93213.06;5112283;28;20024;-52
2021/11/22 10:29:26;;;;;;;12.50;10.50;;;;;;;20.46;34.33;93206.50;5112151;28;20027;-51
2021/11/22 10:31:56;;;;;;;17.65;12.13;;;;;;;20.78;34.18;93197.00;5111761;28;20040;-52
2021/11/22 10:34:22;;;;;;;13.52;11.18;;;;;;;20.88;34.41;93197.50;5110528;28;20035;-53
2021/11/22 10:36:58;;;;;;;13.38;10.55;;;;;;;20.99;33.15;93195.94;5112164;28;20084;-52
2021/11/22 10:39:26;;;;;;;14.57;10.07;;;;;;;20.81;33.06;93178.88;5111782;28;20038;-53
2021/11/22 10:41:51;;;;;;;16.05;11.40;;;;;;;21.43;33.00;93195.44;5111109;28;20027;-52
2021/11/22 10:44:17;;;;;;;16.40;11.70;;;;;;;21.69;32.20;93193.19;5094878;28;20104;-61
2021/11/22 10:46:48;;;;;;;12.18;9.02;;;;;;;20.98;32.48;93183.28;5094278;28;20098;-54
2021/11/22 10:49:16;;;;;;;11.15;9.68;;;;;;;19.93;34.75;93168.50;5091411;28;20505;-51
2021/11/22 10:51:49;;;;;;;27.95;16.90;;;;;;;19.81;35.76;93168.59;5091686;28;20067;-52
2021/11/22 10:54:20;;;;;;;19.55;12.70;;;;;;;19.46;35.76;93142.78;5099440;28;20039;-54
2021/11/22 10:56:49;;;;;;;29.55;15.95;;;;;;;19.24;37.03;93166.69;5107738;28;20081;-54
2021/11/22 10:59:18;;;;;;;;;;;;;;;19.13;36.92;93159.78;5111735;28;20028;-53
2021/11/22 11:01:48;;;;;;;14.38;10.38;;;;;;;19.07;37.48;93158.72;5111724;28;19912;-54
2021/11/22 11:04:16;;;;;;;17.63;12.27;;;;;;;18.74;37.87;93161.69;5111683;28;20023;-53
2021/11/22 11:07:06;;;;;;;16.23;12.48;;;;;;;18.21;39.21;93152.19;5111143;28;20027;-52
2021/11/22 11:09:37;;;;;;;58.22;32.13;;;;;;;17.98;40.19;93158.47;5104280;28;20827;-54
2021/11/22 11:12:09;;;;;;;26.17;14.80;;;;;;;17.80;39.96;93160.09;5109125;28;20028;-54
2021/11/22 11:14:38;;;;;;;19.55;11.50;;;;;;;17.74;39.90;93170.16;5110538;28;20031;-54
2021/11/22 11:17:12;;;;;;;;;;;;;;;17.63;40.46;93168.09;5111089;28;20046;-54
2021/11/22 11:19:39;;;;;;;17.48;12.57;;;;;;;17.42;41.33;93168.81;5109754;28;19907;-53